Time;durP1;ratioP1;P1;durP2;ratioP2;P2;SDS_P1;SDS_P2;PMS_P1;PMS_P2;Temp;Humidity;BMP_temperature;BMP_pressure;BME280_temperature;BME280_humidity;BME280_pressure;Samples;Min_cycle;Max_cycle;Signal;HPM_P1;HPM_P2
2021/07/22 00:00:30;;;;;;;1.45;1.10;;;;;;;;;;5075518;28;20040;-49
2021/07/22 00:02:57;;;;;;;1.63;1.10;;;;;;;;;;5093080;28;20075;-48
2021/07/22 00:05:24;;;;;;;1.15;1.05;;;;;;;;;;5089617;28;20043;-48
2021/07/22 00:07:51;;;;;;;1.20;1.10;;;;;;;;;;5093438;28;20040;-50
2021/07/22 00:10:18;;;;;;;8.00;1.60;;;;;;;;;;5089704;28;20032;-50
2021/07/22 00:12:45;;;;;;;1.00;1.00;;;;;;;;;;5090574;28;20040;-49
2021/07/22 00:15:11;;;;;;;0.90;0.90;;;;;;;;;;5102484;28;20067;-50
2021/07/22 00:17:38;;;;;;;2.05;1.13;;;;;;;;;;5095993;28;20452;-49
2021/07/22 00:20:06;;;;;;;1.80;1.65;;;;;;;;;;5091178;28;20127;-49
2021/07/22 00:22:37;;;;;;;2.20;1.05;;;;;;;;;;5090014;28;20109;-50
2021/07/22 00:25:07;;;;;;;2.05;1.30;;;;;;;;;;5092097;28;20089;-48
2021/07/22 00:27:34;;;;;;;1.10;1.00;;;;;;;;;;5090359;28;20479;-47
2021/07/22 00:30:01;;;;;;;4.80;1.35;;;;;;;;;;5091860;28;20040;-48
2021/07/22 00:32:27;;;;;;;5.57;1.23;;;;;;;;;;5090273;28;20388;-49
2021/07/22 00:34:54;;;;;;;1.38;1.38;;;;;;;;;;5091751;28;20036;-47
2021/07/22 00:37:21;;;;;;;1.40;1.17;;;;;;;;;;5090360;28;20499;-48
2021/07/22 00:39:48;;;;;;;2.28;1.00;;;;;;;;;;5091579;28;20059;-49
2021/07/22 00:42:14;;;;;;;1.70;1.00;;;;;;;;;;5092133;28;20040;-49
2021/07/22 00:44:41;;;;;;;3.78;1.50;;;;;;;;;;5091211;28;20078;-48
2021/07/22 00:47:08;;;;;;;1.50;1.50;;;;;;;;;;5093448;28;20089;-50
2021/07/22 00:49:34;;;;;;;2.72;1.27;;;;;;;;;;5091674;28;20083;-46
2021/07/22 00:52:01;;;;;;;1.55;1.30;;;;;;;;;;5087890;28;20464;-49
2021/07/22 00:54:28;;;;;;;1.67;1.33;;;;;;;;;;5090244;28;20531;-47
2021/07/22 00:56:55;;;;;;;1.38;1.27;;;;;;;;;;5089815;28;20039;-46
2021/07/22 00:59:21;;;;;;;1.67;1.20;;;;;;;;;;5084183;28;20119;-46
2021/07/22 01:01:48;;;;;;;1.30;1.20;;;;;;;;;;5082249;28;20044;-47
2021/07/22 01:04:15;;;;;;;3.90;1.52;;;;;;;;;;5091670;28;20115;-47
2021/07/22 01:06:42;;;;;;;1.98;1.48;;;;;;;;;;5090214;28;20039;-48
2021/07/22 01:09:09;;;;;;;2.08;1.55;;;;;;;;;;5089719;28;20036;-49
2021/07/22 01:11:35;;;;;;;1.48;1.38;;;;;;;;;;5092482;28;20081;-49
2021/07/22 01:14:02;;;;;;;1.38;1.10;;;;;;;;;;5072732;28;20043;-49
2021/07/22 01:16:29;;;;;;;1.85;1.67;;;;;;;;;;5091625;28;20028;-48
2021/07/22 01:18:56;;;;;;;1.40;1.30;;;;;;;;;;5090318;28;20050;-49
2021/07/22 01:21:24;;;;;;;1.52;1.33;;;;;;;;;;5089740;28;20067;-45
2021/07/22 01:23:51;;;;;;;1.50;1.40;;;;;;;;;;5090797;28;20472;-49
2021/07/22 01:26:18;;;;;;;2.28;1.30;;;;;;;;;;5090573;28;20097;-49
2021/07/22 01:28:47;;;;;;;2.50;1.55;;;;;;;;;;5092801;28;20071;-47
2021/07/22 01:31:13;;;;;;;1.58;1.48;;;;;;;;;;5091099;28;20448;-48
2021/07/22 01:33:42;;;;;;;3.53;1.42;;;;;;;;;;5088544;28;20063;-47
2021/07/22 01:36:08;;;;;;;1.48;1.38;;;;;;;;;;5092137;28;20114;-46
2021/07/22 01:38:36;;;;;;;1.65;1.55;;;;;;;;;;5089760;28;20376;-46
2021/07/22 01:41:03;;;;;;;3.60;1.70;;;;;;;;;;5100710;28;20093;-46
2021/07/22 01:43:30;;;;;;;1.40;1.30;;;;;;;;;;5090423;28;20067;-46
2021/07/22 01:45:57;;;;;;;1.30;1.30;;;;;;;;;;5089174;28;20036;-49
2021/07/22 01:48:24;;;;;;;2.25;2.05;;;;;;;;;;5091920;28;20075;-46
2021/07/22 01:50:50;;;;;;;1.63;1.52;;;;;;;;;;5087833;28;20063;-48
2021/07/22 01:53:17;;;;;;;3.80;1.50;;;;;;;;;;5083038;28;20472;-49
2021/07/22 01:55:44;;;;;;;1.52;1.42;;;;;;;;;;5091233;28;20039;-47
2021/07/22 01:58:11;;;;;;;1.70;1.60;;;;;;;;;;5089012;28;20048;-46
2021/07/22 02:00:38;;;;;;;1.75;1.65;;;;;;;;;;5091786;28;20097;-49
2021/07/22 02:03:04;;;;;;;2.33;1.40;;;;;;;;;;5089069;28;20074;-46
2021/07/22 02:05:31;;;;;;;1.75;1.65;;;;;;;;;;5089597;28;20083;-48
2021/07/22 02:07:58;;;;;;;2.20;1.83;;;;;;;;;;5090915;28;20078;-49
2021/07/22 02:10:25;;;;;;;1.60;1.50;;;;;;;;;;5091269;28;20429;-50
2021/07/22 02:12:52;;;;;;;2.90;1.35;;;;;;;;;;5090236;28;20032;-47
2021/07/22 02:15:20;;;;;;;4.45;1.70;;;;;;;;;;5089273;28;20044;-50
2021/07/22 02:17:47;;;;;;;1.30;1.30;;;;;;;;;;5088906;28;20039;-49
2021/07/22 02:20:14;;;;;;;1.95;1.33;;;;;;;;;;5090427;28;20032;-46
2021/07/22 02:22:40;;;;;;;2.55;1.65;;;;;;;;;;5085996;28;20093;-45
2021/07/22 02:25:07;;;;;;;2.63;1.30;;;;;;;;;;5090042;28;20479;-48
2021/07/22 02:27:35;;;;;;;2.53;1.90;;;;;;;;;;5088446;28;20036;-46
2021/07/22 02:30:03;;;;;;;2.78;1.83;;;;;;;;;;5088676;28;20436;-49
2021/07/22 02:32:30;;;;;;;2.35;1.25;;;;;;;;;;5083835;28;20070;-47
2021/07/22 02:34:57;;;;;;;3.55;2.08;;;;;;;;;;5089385;28;20109;-48
2021/07/22 02:37:24;;;;;;;1.42;1.33;;;;;;;;;;5085964;28;20032;-47
2021/07/22 02:39:50;;;;;;;3.90;2.03;;;;;;;;;;5090067;28;20172;-48
2021/07/22 02:42:17;;;;;;;2.97;1.60;;;;;;;;;;5090119;28;20105;-47
2021/07/22 02:44:44;;;;;;;1.70;1.60;;;;;;;;;;5088884;28;20032;-47
2021/07/22 02:47:11;;;;;;;2.03;1.92;;;;;;;;;;5088689;28;20063;-49
2021/07/22 02:49:39;;;;;;;2.80;1.58;;;;;;;;;;5089066;28;20039;-48
2021/07/22 02:52:06;;;;;;;2.17;1.98;;;;;;;;;;5090849;28;20062;-47
2021/07/22 02:54:32;;;;;;;1.80;1.70;;;;;;;;;;5080823;28;20028;-48
2021/07/22 02:56:59;;;;;;;2.67;1.45;;;;;;;;;;5089587;28;20388;-48
2021/07/22 02:59:26;;;;;;;1.33;1.23;;;;;;;;;;5087333;28;20060;-47
2021/07/22 03:01:52;;;;;;;4.10;2.00;;;;;;;;;;5089132;28;20123;-46
2021/07/22 03:04:20;;;;;;;1.63;1.25;;;;;;;;;;5091188;28;20047;-55
2021/07/22 03:06:47;;;;;;;1.25;1.25;;;;;;;;;;5088026;28;20111;-46
2021/07/22 03:09:14;;;;;;;3.53;1.20;;;;;;;;;;5085986;28;20040;-45
2021/07/22 03:11:40;;;;;;;2.55;1.75;;;;;;;;;;5089558;28;20048;-49
2021/07/22 03:14:07;;;;;;;1.70;1.38;;;;;;;;;;5089510;28;20048;-49
2021/07/22 03:16:34;;;;;;;1.52;1.42;;;;;;;;;;5097183;28;20118;-50
2021/07/22 03:19:01;;;;;;;1.58;1.48;;;;;;;;;;5096591;28;20036;-50
2021/07/22 03:21:27;;;;;;;1.60;1.50;;;;;;;;;;5090002;28;20500;-49
2021/07/22 03:23:54;;;;;;;2.65;1.38;;;;;;;;;;5091561;28;20032;-46
2021/07/22 03:26:21;;;;;;;1.38;1.27;;;;;;;;;;5092269;28;20049;-47
2021/07/22 03:28:48;;;;;;;1.38;1.27;;;;;;;;;;5092649;28;20076;-48
2021/07/22 03:31:14;;;;;;;3.10;1.92;;;;;;;;;;5091807;28;20097;-46
2021/07/22 03:33:41;;;;;;;2.55;1.50;;;;;;;;;;5093432;28;20453;-49
2021/07/22 03:36:08;;;;;;;2.97;1.60;;;;;;;;;;5090037;28;20036;-49
2021/07/22 03:38:35;;;;;;;1.92;1.73;;;;;;;;;;5073085;28;20071;-46
2021/07/22 03:41:01;;;;;;;1.38;1.27;;;;;;;;;;5089941;28;20036;-50
2021/07/22 03:43:28;;;;;;;1.98;1.88;;;;;;;;;;5093172;28;20047;-45
2021/07/22 03:45:58;;;;;;;1.80;1.67;;;;;;;;;;5093370;28;20047;-49
2021/07/22 03:48:25;;;;;;;1.73;1.65;;;;;;;;;;5091724;28;20465;-48
2021/07/22 03:50:52;;;;;;;2.60;1.75;;;;;;;;;;5091732;28;20089;-49
2021/07/22 03:53:19;;;;;;;1.88;1.77;;;;;;;;;;5091362;28;20040;-46
2021/07/22 03:55:46;;;;;;;1.70;1.60;;;;;;;;;;5089120;28;20531;-47
2021/07/22 03:58:13;;;;;;;2.00;1.90;;;;;;;;;;5092422;28;20040;-47
2021/07/22 04:00:40;;;;;;;1.70;1.70;;;;;;;;;;5090653;28;20487;-47
2021/07/22 04:03:06;;;;;;;1.88;1.48;;;;;;;;;;5091896;28;20060;-47
2021/07/22 04:05:33;;;;;;;1.65;1.65;;;;;;;;;;5079393;28;20044;-48
2021/07/22 04:08:00;;;;;;;1.88;1.77;;;;;;;;;;5089911;28;20044;-45
2021/07/22 04:10:28;;;;;;;1.52;1.38;;;;;;;;;;5089753;28;20048;-50
2021/07/22 04:12:56;;;;;;;1.80;1.55;;;;;;;;;;5087777;28;20043;-48
2021/07/22 04:15:23;;;;;;;3.70;2.17;;;;;;;;;;5084250;28;20094;-47
2021/07/22 04:17:51;;;;;;;1.85;1.58;;;;;;;;;;5077679;28;20037;-49
2021/07/22 04:20:22;;;;;;;2.20;2.10;;;;;;;;;;5086334;28;20092;-49
2021/07/22 04:22:49;;;;;;;2.15;1.58;;;;;;;;;;5083234;28;20029;-50
2021/07/22 04:25:15;;;;;;;3.17;1.58;;;;;;;;;;5091315;28;20079;-47
2021/07/22 04:27:42;;;;;;;2.08;1.98;;;;;;;;;;5089650;28;20418;-45
2021/07/22 04:30:09;;;;;;;3.28;2.08;;;;;;;;;;5092072;28;20032;-47
2021/07/22 04:32:36;;;;;;;2.13;2.03;;;;;;;;;;5090421;28;20040;-45
2021/07/22 04:35:04;;;;;;;1.92;1.55;;;;;;;;;;5092243;28;20074;-48
2021/07/22 04:37:30;;;;;;;4.40;1.88;;;;;;;;;;5094371;28;20067;-48
2021/07/22 04:39:57;;;;;;;2.15;2.05;;;;;;;;;;5089273;28;20614;-50
2021/07/22 04:42:23;;;;;;;1.40;1.40;;;;;;;;;;5092495;28;20044;-48
2021/07/22 04:44:50;;;;;;;2.90;1.52;;;;;;;;;;5093331;28;20032;-50
2021/07/22 04:47:17;;;;;;;1.42;1.42;;;;;;;;;;5090094;28;20044;-50
2021/07/22 04:49:45;;;;;;;2.10;1.20;;;;;;;;;;5089420;28;20047;-45
2021/07/22 04:52:12;;;;;;;3.38;1.85;;;;;;;;;;5090907;28;20114;-48
2021/07/22 04:54:38;;;;;;;1.88;1.30;;;;;;;;;;5084980;28;20080;-47
2021/07/22 04:57:05;;;;;;;2.33;1.30;;;;;;;;;;5089597;28;20037;-48
2021/07/22 04:59:32;;;;;;;1.42;1.33;;;;;;;;;;5090416;28;20481;-47
2021/07/22 05:01:59;;;;;;;1.92;1.38;;;;;;;;;;5087619;28;20040;-48
2021/07/22 05:04:26;;;;;;;1.40;1.20;;;;;;;;;;5089706;28;20530;-50
2021/07/22 05:06:52;;;;;;;1.58;1.50;;;;;;;;;;5090527;28;20044;-50
2021/07/22 05:09:19;;;;;;;1.88;1.30;;;;;;;;;;5091419;28;20097;-48
2021/07/22 05:11:46;;;;;;;3.38;1.27;;;;;;;;;;5091188;28;20455;-49
2021/07/22 05:14:13;;;;;;;2.55;1.30;;;;;;;;;;5086570;28;20051;-43
2021/07/22 05:16:39;;;;;;;1.77;1.73;;;;;;;;;;5089824;28;20028;-43
2021/07/22 05:19:07;;;;;;;2.05;1.73;;;;;;;;;;5075036;28;20068;-42
2021/07/22 05:21:33;;;;;;;2.15;1.63;;;;;;;;;;5091699;28;20048;-43
2021/07/22 05:24:00;;;;;;;2.78;2.50;;;;;;;;;;5091758;28;20044;-43
2021/07/22 05:26:27;;;;;;;2.38;2.17;;;;;;;;;;5082685;28;20041;-44
2021/07/22 05:28:54;;;;;;;2.55;2.35;;;;;;;;;;5089538;28;20032;-41
2021/07/22 05:31:21;;;;;;;2.15;1.98;;;;;;;;;;5090113;28;20135;-41
2021/07/22 05:33:48;;;;;;;2.97;1.83;;;;;;;;;;5089480;28;20050;-42
2021/07/22 05:36:15;;;;;;;3.25;2.03;;;;;;;;;;5069631;28;20047;-42
2021/07/22 05:38:42;;;;;;;2.28;2.03;;;;;;;;;;5101755;28;20534;-42
2021/07/22 05:41:10;;;;;;;1.77;1.67;;;;;;;;;;5087734;28;20044;-43
2021/07/22 05:43:36;;;;;;;1.92;1.83;;;;;;;;;;5089764;28;20097;-43
2021/07/22 05:46:03;;;;;;;5.63;2.20;;;;;;;;;;5082536;28;20071;-42
2021/07/22 05:48:30;;;;;;;3.35;2.10;;;;;;;;;;5090717;28;20087;-44
2021/07/22 05:51:00;;;;;;;1.58;1.48;;;;;;;;;;5090460;28;20032;-41
2021/07/22 05:53:27;;;;;;;8.60;1.98;;;;;;;;;;5088812;28;20594;-41
2021/07/22 05:55:58;;;;;;;1.90;1.38;;;;;;;;;;5089623;28;20537;-42
2021/07/22 05:58:25;;;;;;;1.55;1.27;;;;;;;;;;5089311;28;20090;-42
2021/07/22 06:00:52;;;;;;;1.88;1.10;;;;;;;;;;5090562;28;20043;-41
2021/07/22 06:03:18;;;;;;;1.70;1.15;;;;;;;;;;5090263;28;20107;-42
2021/07/22 06:05:45;;;;;;;2.13;1.30;;;;;;;;;;5090826;28;20044;-42
2021/07/22 06:08:13;;;;;;;2.25;1.48;;;;;;;;;;5088302;28;20043;-43
2021/07/22 06:10:40;;;;;;;1.95;1.10;;;;;;;;;;5091216;28;20124;-41
2021/07/22 06:13:07;;;;;;;0.90;0.90;;;;;;;;;;5088217;28;20073;-42
2021/07/22 06:15:33;;;;;;;1.40;1.23;;;;;;;;;;5086705;28;20047;-42
2021/07/22 06:18:00;;;;;;;3.08;1.20;;;;;;;;;;5090390;28;20442;-43
2021/07/22 06:20:27;;;;;;;1.75;1.10;;;;;;;;;;5086680;28;20032;-41
2021/07/22 06:22:54;;;;;;;2.45;1.48;;;;;;;;;;5091685;28;20043;-43
2021/07/22 06:25:20;;;;;;;1.60;1.20;;;;;;;;;;5087147;28;20063;-43
2021/07/22 06:27:47;;;;;;;1.90;1.30;;;;;;;;;;5072915;28;20055;-45
2021/07/22 06:30:14;;;;;;;3.55;1.23;;;;;;;;;;5089642;28;20036;-44
2021/07/22 06:32:40;;;;;;;1.40;1.30;;;;;;;;;;5090604;28;20074;-42
2021/07/22 06:35:07;;;;;;;7.70;1.38;;;;;;;;;;5090001;28;20044;-43
2021/07/22 06:37:44;;;;;;;2.95;1.30;;;;;;;;;;5088417;28;20047;-43
2021/07/22 06:40:11;;;;;;;1.23;1.00;;;;;;;;;;5071702;28;20048;-42
2021/07/22 06:42:38;;;;;;;2.45;0.90;;;;;;;;;;5078008;28;20086;-43
2021/07/22 06:45:05;;;;;;;3.35;1.65;;;;;;;;;;5082214;28;20067;-42
2021/07/22 06:47:31;;;;;;;7.38;1.15;;;;;;;;;;5071983;28;20655;-44
2021/07/22 06:49:58;;;;;;;1.20;1.10;;;;;;;;;;5071931;28;20086;-41
2021/07/22 06:52:25;;;;;;;0.98;0.98;;;;;;;;;;5088454;28;20040;-45
2021/07/22 06:54:52;;;;;;;2.72;1.25;;;;;;;;;;5090432;28;20101;-45
2021/07/22 06:57:18;;;;;;;3.55;1.10;;;;;;;;;;5085651;28;20119;-43
2021/07/22 06:59:45;;;;;;;1.98;0.90;;;;;;;;;;5089059;28;20040;-44
2021/07/22 07:02:12;;;;;;;2.90;1.45;;;;;;;;;;5088296;28;20050;-43
2021/07/22 07:04:39;;;;;;;3.45;1.00;;;;;;;;;;5087508;28;20430;-44
2021/07/22 07:07:06;;;;;;;1.95;0.95;;;;;;;;;;5090955;28;20115;-43
2021/07/22 07:09:33;;;;;;;0.93;0.93;;;;;;;;;;5090665;28;20102;-42
2021/07/22 07:12:00;;;;;;;2.03;1.02;;;;;;;;;;5088207;28;20093;-41
2021/07/22 07:14:27;;;;;;;0.93;0.90;;;;;;;;;;5085431;28;20115;-42
2021/07/22 07:16:53;;;;;;;1.08;0.90;;;;;;;;;;5079237;28;20414;-42
2021/07/22 07:19:20;;;;;;;2.05;1.20;;;;;;;;;;5079971;28;20465;-43
2021/07/22 07:21:47;;;;;;;1.88;0.85;;;;;;;;;;5088793;28;20060;-43
2021/07/22 07:24:14;;;;;;;1.63;0.90;;;;;;;;;;5072768;28;20136;-44
2021/07/22 07:26:42;;;;;;;0.90;0.82;;;;;;;;;;5090101;28;20051;-41
2021/07/22 07:29:09;;;;;;;2.40;0.80;;;;;;;;;;5087465;28;20090;-41
2021/07/22 07:31:36;;;;;;;1.08;0.90;;;;;;;;;;5076152;28;20123;-42
2021/07/22 07:34:03;;;;;;;1.85;1.00;;;;;;;;;;5087945;28;20029;-42
2021/07/22 07:36:30;;;;;;;2.70;0.95;;;;;;;;;;5088688;28;20341;-42
2021/07/22 07:38:56;;;;;;;1.75;0.90;;;;;;;;;;5078877;28;20123;-42
2021/07/22 07:41:23;;;;;;;0.98;0.90;;;;;;;;;;5063693;28;20033;-45
2021/07/22 07:43:50;;;;;;;2.80;0.88;;;;;;;;;;5061567;28;20049;-44
2021/07/22 07:46:16;;;;;;;4.20;0.90;;;;;;;;;;5087139;28;20075;-44
2021/07/22 07:48:43;;;;;;;2.15;0.90;;;;;;;;;;5088448;28;20101;-42
2021/07/22 07:51:10;;;;;;;1.20;0.80;;;;;;;;;;5078423;28;20479;-43
2021/07/22 07:53:37;;;;;;;2.95;0.90;;;;;;;;;;5083057;28;20047;-42
2021/07/22 07:56:04;;;;;;;2.55;0.90;;;;;;;;;;5070716;28;20044;-43
2021/07/22 07:58:31;;;;;;;1.80;0.80;;;;;;;;;;5087191;28;20097;-44
2021/07/22 08:00:57;;;;;;;2.53;0.80;;;;;;;;;;5086631;28;20068;-45
2021/07/22 08:03:25;;;;;;;2.42;1.20;;;;;;;;;;5084322;28;20495;-46
2021/07/22 08:05:52;;;;;;;1.00;0.80;;;;;;;;;;5082887;28;20111;-44
2021/07/22 08:08:19;;;;;;;2.42;0.93;;;;;;;;;;5074684;28;20036;-45
2021/07/22 08:10:47;;;;;;;9.63;0.82;;;;;;;;;;5092555;28;20044;-43
2021/07/22 08:13:14;;;;;;;1.48;0.70;;;;;;;;;;5090131;28;20044;-43
2021/07/22 08:15:41;;;;;;;0.82;0.82;;;;;;;;;;5084272;28;20033;-42
2021/07/22 08:18:08;;;;;;;5.97;1.00;;;;;;;;;;5089914;28;20043;-43
2021/07/22 08:20:34;;;;;;;1.95;0.63;;;;;;;;;;5090640;28;20122;-43
2021/07/22 08:23:01;;;;;;;0.73;0.73;;;;;;;;;;5092168;28;20063;-44
2021/07/22 08:25:28;;;;;;;7.15;0.80;;;;;;;;;;5091808;28;20523;-44
2021/07/22 08:27:54;;;;;;;4.43;0.70;;;;;;;;;;5081589;28;20071;-43
2021/07/22 08:30:21;;;;;;;3.08;0.70;;;;;;;;;;5092694;28;20052;-42
2021/07/22 08:32:48;;;;;;;1.50;0.80;;;;;;;;;;5092263;28;20167;-44
2021/07/22 08:35:15;;;;;;;1.90;0.80;;;;;;;;;;5083925;28;20082;-44
2021/07/22 08:37:43;;;;;;;1.92;0.70;;;;;;;;;;5089784;28;20032;-43
2021/07/22 08:40:10;;;;;;;1.30;0.73;;;;;;;;;;5091033;28;20109;-43
2021/07/22 08:42:38;;;;;;;0.82;0.82;;;;;;;;;;5090054;28;20549;-43
2021/07/22 08:45:05;;;;;;;1.40;1.02;;;;;;;;;;5091493;28;20418;-42
2021/07/22 08:47:33;;;;;;;3.53;0.95;;;;;;;;;;5084731;28;20051;-44
2021/07/22 08:49:59;;;;;;;2.03;0.75;;;;;;;;;;5083063;28;20718;-45
2021/07/22 08:52:27;;;;;;;1.60;0.77;;;;;;;;;;5110354;28;20122;-43
2021/07/22 08:54:54;;;;;;;4.97;0.80;;;;;;;;;;5084678;28;20036;-42
2021/07/22 08:57:24;;;;;;;0.80;0.80;;;;;;;;;;5079978;28;20040;-44
2021/07/22 08:59:51;;;;;;;3.40;0.55;;;;;;;;;;5092468;28;20074;-43
2021/07/22 09:02:20;;;;;;;2.42;0.70;;;;;;;;;;5092875;28;20559;-44
2021/07/22 09:04:50;;;;;;;0.88;0.70;;;;;;;;;;5090826;28;20682;-43
2021/07/22 09:07:19;;;;;;;1.60;0.70;;;;;;;;;;5099390;28;20080;-43
2021/07/22 09:10:04;;;;;;;0.52;0.52;;;;;;;;;;5099303;28;20036;-44
2021/07/22 09:12:41;;;;;;;1.85;0.70;;;;;;;;;;5074977;28;20463;-42
2021/07/22 09:15:09;;;;;;;1.40;0.60;;;;;;;;;;5084981;28;20563;-45
2021/07/22 09:17:56;;;;;;;2.90;0.60;;;;;;;;;;5074155;28;20489;-42
2021/07/22 09:20:32;;;;;;;1.30;0.60;;;;;;;;;;5091533;28;20058;-45
2021/07/22 09:23:00;;;;;;;1.95;0.60;;;;;;;;;;5090322;28;20090;-44
2021/07/22 09:25:39;;;;;;;0.50;0.50;;;;;;;;;;5091158;28;20036;-42
2021/07/22 09:28:06;;;;;;;1.13;0.80;;;;;;;;;;5080324;28;20064;-42
2021/07/22 09:30:34;;;;;;;3.17;0.50;;;;;;;;;;5090696;28;20643;-42
2021/07/22 09:33:03;;;;;;;1.02;0.40;;;;;;;;;;5090741;28;20036;-45
2021/07/22 09:35:30;;;;;;;0.45;0.43;;;;;;;;;;5085447;28;20052;-43
2021/07/22 09:37:57;;;;;;;1.48;0.50;;;;;;;;;;5080940;28;20083;-46
2021/07/22 09:40:26;;;;;;;0.80;0.60;;;;;;;;;;5091535;28;20122;-46
2021/07/22 09:42:54;;;;;;;1.23;0.50;;;;;;;;;;5091600;28;20040;-43
2021/07/22 09:45:25;;;;;;;0.80;0.50;;;;;;;;;;5089527;28;20509;-43
2021/07/22 09:47:56;;;;;;;1.45;0.50;;;;;;;;;;5083005;28;20738;-43
2021/07/22 09:50:24;;;;;;;0.55;0.52;;;;;;;;;;5081268;28;20082;-44
2021/07/22 09:53:28;;;;;;;0.50;0.50;;;;;;;;;;5091361;28;20119;-42
2021/07/22 09:55:56;;;;;;;0.93;0.40;;;;;;;;;;5007965;28;20470;-42
2021/07/22 09:58:23;;;;;;;0.70;0.50;;;;;;;;;;5003586;28;20115;-43
2021/07/22 10:00:50;;;;;;;2.60;0.40;;;;;;;;;;5002832;28;20125;-44
2021/07/22 10:03:19;;;;;;;1.40;0.40;;;;;;;;;;5003932;28;20107;-46
2021/07/22 10:05:48;;;;;;;0.35;0.35;;;;;;;;;;4997130;28;20069;-42
2021/07/22 10:08:18;;;;;;;1.48;0.40;;;;;;;;;;5005756;28;20558;-44
2021/07/22 10:10:56;;;;;;;2.63;0.25;;;;;;;;;;5000799;28;20057;-43
2021/07/22 10:13:25;;;;;;;0.60;0.30;;;;;;;;;;5001522;28;20572;-43
2021/07/22 10:15:51;;;;;;;0.47;0.30;;;;;;;;;;5005986;28;20045;-43
2021/07/22 10:18:20;;;;;;;0.40;0.30;;;;;;;;;;5006594;28;20453;-44
2021/07/22 10:20:49;;;;;;;0.30;0.30;;;;;;;;;;5006520;28;20081;-43
2021/07/22 10:23:15;;;;;;;0.52;0.30;;;;;;;;;;5007127;28;20043;-43
2021/07/22 10:25:42;;;;;;;0.93;0.30;;;;;;;;;;5001843;28;20042;-42
2021/07/22 10:28:09;;;;;;;2.38;0.30;;;;;;;;;;5007492;28;20125;-44
2021/07/22 10:30:36;;;;;;;3.80;0.50;;;;;;;;;;5072790;28;20066;-43
2021/07/22 10:33:03;;;;;;;0.30;0.20;;;;;;;;;;5088000;28;20122;-43
2021/07/22 10:35:31;;;;;;;1.77;0.38;;;;;;;;;;5087736;28;20499;-43
2021/07/22 10:38:04;;;;;;;0.43;0.32;;;;;;;;;;5088620;28;20040;-45
2021/07/22 10:40:43;;;;;;;0.30;0.30;;;;;;;;;;5083755;28;20479;-44
2021/07/22 10:43:28;;;;;;;0.30;0.30;;;;;;;;;;5083226;28;20093;-44
2021/07/22 10:45:56;;;;;;;1.40;0.40;;;;;;;;;;5088628;28;20098;-42
2021/07/22 10:48:28;;;;;;;3.15;0.40;;;;;;;;;;5088433;28;20046;-44
2021/07/22 10:50:55;;;;;;;0.40;0.40;;;;;;;;;;5081696;28;20499;-42
2021/07/22 10:53:40;;;;;;;0.40;0.40;;;;;;;;;;5088292;28;20036;-42
2021/07/22 10:56:18;;;;;;;3.70;0.32;;;;;;;;;;5086092;28;20087;-43
2021/07/22 10:58:44;;;;;;;0.90;0.40;;;;;;;;;;5083554;28;20039;-42
2021/07/22 11:01:11;;;;;;;0.70;0.38;;;;;;;;;;5086334;28;20074;-56
2021/07/22 11:03:38;;;;;;;0.63;0.40;;;;;;;;;;5087578;28;20046;-58
2021/07/22 11:06:12;;;;;;;0.70;0.30;;;;;;;;;;5086421;28;20043;-58
2021/07/22 11:08:39;;;;;;;1.10;0.45;;;;;;;;;;5088037;28;20027;-58
2021/07/22 11:11:10;;;;;;;1.60;0.30;;;;;;;;;;5087297;28;20124;-59
2021/07/22 11:13:36;;;;;;;0.40;0.40;;;;;;;;;;5077773;28;20040;-58
2021/07/22 11:16:11;;;;;;;1.13;0.40;;;;;;;;;;5078979;28;20040;-58
2021/07/22 11:18:44;;;;;;;0.40;0.40;;;;;;;;;;5081250;28;20040;-58
2021/07/22 11:21:11;;;;;;;0.85;0.40;;;;;;;;;;5087610;28;20044;-58
2021/07/22 11:23:40;;;;;;;0.30;0.30;;;;;;;;;;5096710;28;20040;-58
2021/07/22 11:26:07;;;;;;;0.30;0.30;;;;;;;;;;5087625;28;20036;-58
2021/07/22 11:28:34;;;;;;;1.35;0.40;;;;;;;;;;5080746;28;20068;-58
2021/07/22 11:31:09;;;;;;;0.60;0.60;;;;;;;;;;5088344;28;20101;-58
2021/07/22 11:33:39;;;;;;;1.77;0.30;;;;;;;;;;5089326;28;20048;-59
2021/07/22 11:36:07;;;;;;;0.30;0.30;;;;;;;;;;5081592;28;20053;-59
2021/07/22 11:38:34;;;;;;;0.50;0.50;;;;;;;;;;5087205;28;20083;-59
2021/07/22 11:41:01;;;;;;;0.50;0.50;;;;;;;;;;5083633;28;20369;-58
2021/07/22 11:43:36;;;;;;;0.40;0.40;;;;;;;;;;5084230;28;20035;-59
2021/07/22 11:46:03;;;;;;;0.77;0.52;;;;;;;;;;5088692;28;20042;-59
2021/07/22 11:48:30;;;;;;;0.60;0.40;;;;;;;;;;5073408;28;20414;-58
2021/07/22 11:50:57;;;;;;;0.73;0.30;;;;;;;;;;5093477;28;20457;-58
2021/07/22 11:53:24;;;;;;;0.30;0.30;;;;;;;;;;5091082;28;20044;-58
2021/07/22 11:55:51;;;;;;;0.40;0.40;;;;;;;;;;5084925;28;20059;-57
2021/07/22 11:58:18;;;;;;;4.78;0.40;;;;;;;;;;5087696;28;20075;-58
2021/07/22 12:00:44;;;;;;;0.43;0.38;;;;;;;;;;5088581;28;20024;-58
2021/07/22 12:03:11;;;;;;;0.30;0.30;;;;;;;;;;5089631;28;20039;-60
2021/07/22 12:05:39;;;;;;;0.40;0.40;;;;;;;;;;5089037;28;20067;-58
2021/07/22 12:08:15;;;;;;;1.25;0.40;;;;;;;;;;5095457;28;20094;-59
2021/07/22 12:10:42;;;;;;;0.73;0.40;;;;;;;;;;5085691;28;21339;-58
2021/07/22 12:13:09;;;;;;;1.25;0.50;;;;;;;;;;5092272;28;20450;-58
2021/07/22 12:15:36;;;;;;;2.10;0.40;;;;;;;;;;5091139;28;20078;-58
2021/07/22 12:18:04;;;;;;;1.10;0.60;;;;;;;;;;5091841;28;20047;-59
2021/07/22 12:20:33;;;;;;;1.05;0.50;;;;;;;;;;5089514;28;20048;-58
2021/07/22 12:23:19;;;;;;;0.57;0.43;;;;;;;;;;5088529;28;20635;-58
2021/07/22 12:26:03;;;;;;;3.20;1.23;;;;;;;;;;5088050;28;20036;-59
2021/07/22 12:28:30;;;;;;;1.58;0.93;;;;;;;;;;5086389;28;20067;-58
2021/07/22 12:31:15;;;;;;;0.68;0.60;;;;;;;;;;5085148;28;20579;-57
2021/07/22 12:33:42;;;;;;;1.35;0.50;;;;;;;;;;5092098;28;20040;-58
2021/07/22 12:36:19;;;;;;;3.80;0.50;;;;;;;;;;5087551;28;20044;-58
2021/07/22 12:38:46;;;;;;;1.25;0.70;;;;;;;;;;5083098;28;20410;-58
2021/07/22 12:41:17;;;;;;;5.93;0.57;;;;;;;;;;5085226;28;20135;-59
2021/07/22 12:43:48;;;;;;;1.27;0.52;;;;;;;;;;5078063;28;20522;-59
2021/07/22 12:46:19;;;;;;;0.95;0.73;;;;;;;;;;5075927;28;20051;-58
2021/07/22 12:48:47;;;;;;;1.40;0.60;;;;;;;;;;5093361;28;20059;-60
2021/07/22 12:51:15;;;;;;;0.73;0.50;;;;;;;;;;5091925;28;20060;-58
2021/07/22 12:53:42;;;;;;;1.92;0.50;;;;;;;;;;5090756;28;20082;-58
2021/07/22 12:56:09;;;;;;;1.58;0.50;;;;;;;;;;5092907;28;20078;-58
2021/07/22 12:58:41;;;;;;;0.50;0.50;;;;;;;;;;5089179;28;20097;-58
2021/07/22 13:01:11;;;;;;;1.40;0.40;;;;;;;;;;5092241;28;20123;-58
2021/07/22 13:03:42;;;;;;;1.15;0.95;;;;;;;;;;5091206;28;20035;-58
2021/07/22 13:06:10;;;;;;;4.53;1.05;;;;;;;;;;5090401;28;20112;-59
2021/07/22 13:08:37;;;;;;;1.75;0.55;;;;;;;;;;5081150;28;20056;-59
2021/07/22 13:11:06;;;;;;;2.35;0.52;;;;;;;;;;5086687;28;21341;-59
2021/07/22 13:13:37;;;;;;;1.02;0.60;;;;;;;;;;5091257;28;20131;-58
2021/07/22 13:16:05;;;;;;;0.90;0.60;;;;;;;;;;5088287;28;20044;-58
2021/07/22 13:18:33;;;;;;;0.95;0.57;;;;;;;;;;5086092;28;20044;-58
2021/07/22 13:21:09;;;;;;;1.98;0.55;;;;;;;;;;5092343;28;20036;-58
2021/07/22 13:23:36;;;;;;;2.05;0.60;;;;;;;;;;5090945;28;20067;-58
2021/07/22 13:26:05;;;;;;;0.50;0.50;;;;;;;;;;5085808;28;20108;-59
2021/07/22 13:28:31;;;;;;;0.70;0.70;;;;;;;;;;5086025;28;20052;-58
2021/07/22 13:30:58;;;;;;;1.92;0.60;;;;;;;;;;5086145;28;20752;-58
2021/07/22 13:33:25;;;;;;;0.90;0.50;;;;;;;;;;5084170;28;20036;-58
2021/07/22 13:35:52;;;;;;;0.60;0.60;;;;;;;;;;5086938;28;20032;-59
2021/07/22 13:38:31;;;;;;;1.90;0.65;;;;;;;;;;5089069;28;20075;-60
2021/07/22 13:40:59;;;;;;;1.13;0.50;;;;;;;;;;5088083;28;20051;-60
2021/07/22 13:43:26;;;;;;;1.73;0.57;;;;;;;;;;5085396;28;20083;-59
2021/07/22 13:45:53;;;;;;;0.50;0.50;;;;;;;;;;5091310;28;20044;-59
2021/07/22 13:48:20;;;;;;;4.43;0.50;;;;;;;;;;5088792;28;20032;-59
2021/07/22 13:50:47;;;;;;;2.40;0.50;;;;;;;;;;5081854;28;20102;-60
2021/07/22 13:53:14;;;;;;;0.93;0.50;;;;;;;;;;5086096;28;20068;-59
2021/07/22 13:55:40;;;;;;;0.50;0.50;;;;;;;;;;5090615;28;20120;-59
2021/07/22 13:58:07;;;;;;;2.60;0.60;;;;;;;;;;5087085;28;20093;-59
2021/07/22 14:00:34;;;;;;;1.60;0.70;;;;;;;;;;5085483;28;20369;-58
2021/07/22 14:03:04;;;;;;;2.45;0.80;;;;;;;;;;5090715;28;20078;-60
2021/07/22 14:05:32;;;;;;;0.70;0.70;;;;;;;;;;5083930;28;20067;-59
2021/07/22 14:07:59;;;;;;;0.70;0.70;;;;;;;;;;5072994;28;20071;-59
2021/07/22 14:10:26;;;;;;;2.47;0.73;;;;;;;;;;5087889;28;20047;-58
2021/07/22 14:12:53;;;;;;;0.85;0.80;;;;;;;;;;5084988;28;20036;-60
2021/07/22 14:15:20;;;;;;;0.90;0.77;;;;;;;;;;5085802;28;20532;-58
2021/07/22 14:17:47;;;;;;;0.70;0.70;;;;;;;;;;5087590;28;20054;-59
2021/07/22 14:20:13;;;;;;;0.75;0.70;;;;;;;;;;5084410;28;20036;-58
2021/07/22 14:22:40;;;;;;;0.90;0.80;;;;;;;;;;5086897;28;20048;-58
2021/07/22 14:25:07;;;;;;;3.20;1.13;;;;;;;;;;5088943;28;20116;-57
2021/07/22 14:27:33;;;;;;;0.75;0.70;;;;;;;;;;5089658;28;20044;-57
2021/07/22 14:30:00;;;;;;;2.75;0.90;;;;;;;;;;5083074;28;20048;-57
2021/07/22 14:32:27;;;;;;;2.60;0.80;;;;;;;;;;5083468;28;20047;-58
2021/07/22 14:34:54;;;;;;;2.13;0.88;;;;;;;;;;5094676;28;20040;-57
2021/07/22 14:37:21;;;;;;;2.45;0.80;;;;;;;;;;5079214;28;20093;-56
2021/07/22 14:39:48;;;;;;;4.40;1.13;;;;;;;;;;5085982;28;20047;-58
2021/07/22 14:42:14;;;;;;;1.63;0.90;;;;;;;;;;5091044;28;20071;-57
2021/07/22 14:44:41;;;;;;;3.63;1.25;;;;;;;;;;5088316;28;20044;-57
2021/07/22 14:47:08;;;;;;;3.42;0.90;;;;;;;;;;5089527;28;20452;-58